createdAt,value
2019-03-29T00:01:29.739Z,4.20
2019-03-29T00:04:34.478Z,4.23
2019-03-29T00:07:41.040Z,4.23
2019-03-29T00:10:47.023Z,4.57
2019-03-29T00:13:51.981Z,4.80
2019-03-29T00:16:58.154Z,5.70
2019-03-29T00:20:06.047Z,5.20
2019-03-29T00:23:10.798Z,4.03
2019-03-29T00:26:16.468Z,4.30
2019-03-29T00:29:21.234Z,4.10
2019-03-29T00:32:26.138Z,4.57
2019-03-29T00:35:31.066Z,3.97
2019-03-29T00:38:35.937Z,3.83
2019-03-29T00:41:40.784Z,4.00
2019-03-29T00:44:46.967Z,3.60
2019-03-29T00:47:52.243Z,3.07
2019-03-29T00:50:59.028Z,3.20
2019-03-29T00:54:04.027Z,3.50
2019-03-29T00:57:08.992Z,3.37
2019-03-29T01:00:13.819Z,3.97
2019-03-29T01:03:18.671Z,3.40
2019-03-29T01:06:23.447Z,3.70
2019-03-29T01:09:28.187Z,3.77
2019-03-29T01:12:33.217Z,3.33
2019-03-29T01:15:38.088Z,3.27
2019-03-29T01:18:43.305Z,3.23
2019-03-29T01:21:48.184Z,3.13
2019-03-29T01:24:53.042Z,3.00
2019-03-29T01:27:58.326Z,3.70
2019-03-29T01:31:03.561Z,3.40
2019-03-29T01:34:10.613Z,3.10
2019-03-29T01:37:15.578Z,3.60
2019-03-29T01:40:21.462Z,3.40
2019-03-29T01:43:26.540Z,3.77
2019-03-29T01:46:31.823Z,2.73
2019-03-29T01:49:36.720Z,3.20
2019-03-29T01:52:41.582Z,3.90
2019-03-29T01:55:46.385Z,3.10
2019-03-29T01:58:51.336Z,2.70
2019-03-29T02:01:56.106Z,2.40
2019-03-29T02:05:01.233Z,3.07
2019-03-29T02:08:06.821Z,3.63
2019-03-29T02:11:13.005Z,3.23
2019-03-29T02:14:18.049Z,3.57
2019-03-29T02:17:23.085Z,2.83
2019-03-29T02:20:27.975Z,3.80
2019-03-29T02:23:33.283Z,3.60
2019-03-29T02:26:38.247Z,3.67
2019-03-29T02:29:43.680Z,3.67
2019-03-29T02:32:48.561Z,3.27
2019-03-29T02:35:53.445Z,4.37
2019-03-29T02:38:59.507Z,3.10
2019-03-29T02:42:04.505Z,3.27
2019-03-29T02:45:09.651Z,3.20
2019-03-29T02:48:16.752Z,3.97
2019-03-29T02:51:21.150Z,3.30
2019-03-29T02:54:25.990Z,3.30
2019-03-29T02:57:30.875Z,3.23
2019-03-29T03:00:35.792Z,2.53
2019-03-29T03:03:41.136Z,3.70
2019-03-29T03:06:46.029Z,3.17
2019-03-29T03:09:50.888Z,2.90
2019-03-29T03:12:55.843Z,2.90
2019-03-29T03:16:00.982Z,2.90
2019-03-29T03:19:06.128Z,3.27
2019-03-29T03:22:10.899Z,2.53
2019-03-29T03:25:16.155Z,3.30
2019-03-29T03:28:21.058Z,2.83
2019-03-29T03:31:26.412Z,3.20
2019-03-29T03:34:31.387Z,3.77
2019-03-29T03:37:36.652Z,3.73
2019-03-29T03:40:41.546Z,3.73
2019-03-29T03:43:46.379Z,3.60
2019-03-29T03:46:51.216Z,4.13
2019-03-29T03:50:00.650Z,4.23
2019-03-29T03:53:03.611Z,3.43
2019-03-29T03:56:08.741Z,3.20
2019-03-29T03:59:13.801Z,3.77
2019-03-29T04:02:18.647Z,3.17
2019-03-29T04:05:23.450Z,3.67
2019-03-29T04:08:28.699Z,3.63
2019-03-29T04:11:34.544Z,3.93
2019-03-29T04:14:39.697Z,4.50
2019-03-29T04:17:45.808Z,3.80
2019-03-29T04:20:51.203Z,3.53
2019-03-29T04:23:56.835Z,3.57
2019-03-29T04:27:01.723Z,3.60
2019-03-29T04:30:07.023Z,3.90
2019-03-29T04:33:11.825Z,4.73
2019-03-29T04:36:16.704Z,6.10
2019-03-29T04:39:21.577Z,3.83
2019-03-29T04:42:27.630Z,4.07
2019-03-29T04:45:32.542Z,4.07
2019-03-29T04:48:37.874Z,3.10
2019-03-29T04:51:43.018Z,3.50
2019-03-29T04:54:48.311Z,3.20
2019-03-29T04:57:53.175Z,3.37
2019-03-29T05:00:58.104Z,3.47
2019-03-29T05:04:03.032Z,3.27
2019-03-29T05:07:07.832Z,2.90
2019-03-29T05:10:20.991Z,3.47
2019-03-29T05:13:20.768Z,3.20
2019-03-29T05:16:28.072Z,3.17
2019-03-29T05:19:32.921Z,3.20
2019-03-29T05:22:38.282Z,4.07
2019-03-29T05:25:43.103Z,9.73
2019-03-29T05:28:48.262Z,6.47
2019-03-29T05:31:53.766Z,4.90
2019-03-29T05:34:58.765Z,4.07
2019-03-29T05:38:03.666Z,3.67
2019-03-29T05:41:08.513Z,3.47
2019-03-29T05:44:13.453Z,3.70
2019-03-29T05:47:18.224Z,4.20
2019-03-29T05:50:23.240Z,3.80
2019-03-29T05:53:28.072Z,3.70
2019-03-29T05:56:32.957Z,3.33
2019-03-29T05:59:37.718Z,3.40
2019-03-29T06:02:42.505Z,3.70
2019-03-29T06:05:47.395Z,3.60
2019-03-29T06:08:52.230Z,3.40
2019-03-29T06:11:56.994Z,3.00
2019-03-29T06:15:02.006Z,3.40
2019-03-29T06:18:07.343Z,3.00
2019-03-29T06:21:12.119Z,2.77
2019-03-29T06:24:17.073Z,2.50
2019-03-29T06:27:21.875Z,2.20
2019-03-29T06:30:32.608Z,2.53
2019-03-29T06:33:38.404Z,1.40
2019-03-29T06:36:44.386Z,1.40
2019-03-29T06:39:50.225Z,1.73
2019-03-29T06:42:56.074Z,1.77
2019-03-29T06:46:01.010Z,1.63
2019-03-29T06:49:06.346Z,1.73
2019-03-29T06:52:11.136Z,1.70
2019-03-29T06:55:15.906Z,1.57
2019-03-29T06:58:20.787Z,1.30
2019-03-29T07:01:25.639Z,1.40
2019-03-29T07:04:30.494Z,1.50
2019-03-29T07:07:35.297Z,1.30
2019-03-29T07:10:40.212Z,1.40
2019-03-29T07:13:56.588Z,1.47
2019-03-29T07:16:51.667Z,1.70
2019-03-29T07:19:56.628Z,1.60
2019-03-29T07:23:01.812Z,1.37
2019-03-29T07:26:06.735Z,1.53
2019-03-29T07:29:11.683Z,1.03
2019-03-29T07:32:16.578Z,1.10
2019-03-29T07:35:21.681Z,1.10
2019-03-29T07:38:26.548Z,0.90
2019-03-29T07:41:32.520Z,0.90
2019-03-29T07:44:37.579Z,0.67
2019-03-29T07:47:42.781Z,0.73
2019-03-29T07:50:47.563Z,0.57
2019-03-29T07:53:52.424Z,0.50
2019-03-29T07:56:58.230Z,0.60
2019-03-29T08:00:03.124Z,0.67
2019-03-29T08:03:08.108Z,0.47
2019-03-29T08:06:13.437Z,0.70
2019-03-29T08:09:22.726Z,0.60
2019-03-29T08:12:24.834Z,0.70
2019-03-29T08:15:29.715Z,0.57
2019-03-29T08:18:34.595Z,0.80
2019-03-29T08:21:39.447Z,0.67
2019-03-29T08:24:44.654Z,0.67
2019-03-29T08:27:49.608Z,0.70
2019-03-29T08:30:55.454Z,0.73
2019-03-29T08:34:00.322Z,0.60
2019-03-29T08:37:05.191Z,0.77
2019-03-29T08:40:10.222Z,0.80
2019-03-29T08:43:25.843Z,0.90
2019-03-29T08:46:30.911Z,0.70
2019-03-29T08:49:35.814Z,0.90
2019-03-29T08:52:40.624Z,0.70
2019-03-29T08:55:46.379Z,1.00
2019-03-29T08:58:51.398Z,1.00
2019-03-29T09:01:56.160Z,0.87
2019-03-29T09:05:00.951Z,0.80
2019-03-29T09:08:05.728Z,1.10
2019-03-29T09:11:10.761Z,0.87
2019-03-29T09:14:15.893Z,1.10
2019-03-29T09:17:21.146Z,1.00
2019-03-29T09:20:26.062Z,0.90
2019-03-29T09:23:31.091Z,1.13
2019-03-29T09:26:35.962Z,0.97
2019-03-29T09:29:40.967Z,1.10
2019-03-29T09:32:45.944Z,1.10
2019-03-29T09:35:50.810Z,1.20
2019-03-29T09:38:55.657Z,1.07
2019-03-29T09:42:00.569Z,1.03
2019-03-29T09:45:06.587Z,1.03
2019-03-29T09:48:11.446Z,1.17
2019-03-29T09:51:16.286Z,1.10
2019-03-29T09:54:21.154Z,1.17
2019-03-29T09:57:36.939Z,1.13
2019-03-29T10:00:33.255Z,1.30
2019-03-29T10:03:38.190Z,1.00
2019-03-29T10:06:43.089Z,0.97
2019-03-29T10:09:47.953Z,1.37
2019-03-29T10:12:52.813Z,3.60
2019-03-29T10:15:57.662Z,2.40
2019-03-29T10:19:02.821Z,1.87
2019-03-29T10:22:07.570Z,1.57
2019-03-29T10:25:19.874Z,1.30
2019-03-29T10:28:19.304Z,1.70
2019-03-29T10:31:31.968Z,1.23
2019-03-29T10:34:31.266Z,1.40
2019-03-29T10:37:37.820Z,1.43
2019-03-29T10:40:42.792Z,2.60
2019-03-29T10:43:47.723Z,2.30
2019-03-29T10:46:52.627Z,1.73
2019-03-29T10:49:57.462Z,1.50
2019-03-29T10:53:03.979Z,1.50
2019-03-29T10:56:08.739Z,1.47
2019-03-29T10:59:26.690Z,1.80
2019-03-29T11:02:20.093Z,1.60
2019-03-29T11:05:24.937Z,1.50
2019-03-29T11:08:29.681Z,3.60
2019-03-29T11:11:34.635Z,2.90
2019-03-29T11:14:39.475Z,3.20
2019-03-29T11:17:44.808Z,2.13
2019-03-29T11:20:49.584Z,2.00
2019-03-29T11:23:54.450Z,1.90
2019-03-29T11:26:59.930Z,1.80
2019-03-29T11:30:10.607Z,1.70
2019-03-29T11:33:15.518Z,1.80
2019-03-29T11:36:28.488Z,1.70
2019-03-29T11:39:33.346Z,1.80
2019-03-29T11:42:56.973Z,1.40
2019-03-29T11:46:02.841Z,1.70
2019-03-29T11:49:07.635Z,2.10
2019-03-29T11:52:12.499Z,2.20
2019-03-29T11:55:17.834Z,2.10
2019-03-29T11:58:22.727Z,2.00
2019-03-29T12:01:27.566Z,2.30
2019-03-29T12:04:32.379Z,2.30
2019-03-29T12:07:37.175Z,2.00
2019-03-29T12:10:42.061Z,2.10
2019-03-29T12:13:46.877Z,2.20
2019-03-29T12:16:51.737Z,2.17
2019-03-29T12:19:56.588Z,2.07
2019-03-29T12:23:01.424Z,2.37
2019-03-29T12:26:06.278Z,2.67
2019-03-29T12:29:11.158Z,2.67
2019-03-29T12:32:16.023Z,2.67
2019-03-29T12:35:20.931Z,2.80
2019-03-29T12:38:25.791Z,2.30
2019-03-29T12:41:30.653Z,2.83
2019-03-29T12:44:35.454Z,2.70
2019-03-29T12:47:40.300Z,2.50
2019-03-29T12:50:45.131Z,2.57
2019-03-29T12:53:50.034Z,2.57
2019-03-29T12:56:54.959Z,2.87
2019-03-29T12:59:59.759Z,2.77
2019-03-29T13:03:04.866Z,9.13
2019-03-29T13:06:09.702Z,4.90
2019-03-29T13:09:14.577Z,3.70
2019-03-29T13:12:19.490Z,3.40
2019-03-29T13:15:24.344Z,3.40
2019-03-29T13:18:29.200Z,2.77
2019-03-29T13:21:34.937Z,3.10
2019-03-29T13:24:39.722Z,4.20
2019-03-29T13:27:44.571Z,3.30
2019-03-29T13:31:00.216Z,2.90
2019-03-29T13:34:05.141Z,3.57
2019-03-29T13:37:09.882Z,3.80
2019-03-29T13:40:14.914Z,3.33
2019-03-29T13:43:19.853Z,6.33
2019-03-29T13:46:24.790Z,4.43
2019-03-29T13:49:29.555Z,3.73
2019-03-29T13:52:34.816Z,3.50
2019-03-29T13:55:39.707Z,7.20
2019-03-29T13:58:45.450Z,5.13
2019-03-29T14:01:50.271Z,4.60
2019-03-29T14:04:55.119Z,3.80
2019-03-29T14:08:00.823Z,3.37
2019-03-29T14:11:05.684Z,3.87
2019-03-29T14:14:10.489Z,4.87
2019-03-29T14:17:15.255Z,4.23
2019-03-29T14:20:32.659Z,3.93
2019-03-29T14:23:37.602Z,4.30
2019-03-29T14:26:42.554Z,3.57
2019-03-29T14:29:47.367Z,3.60
2019-03-29T14:32:52.187Z,3.40
2019-03-29T14:36:05.823Z,3.70
2019-03-29T14:39:10.662Z,4.50
2019-03-29T14:42:15.475Z,4.20
2019-03-29T14:45:20.243Z,4.50
2019-03-29T14:48:25.026Z,4.00
2019-03-29T14:51:29.825Z,4.70
2019-03-29T14:54:34.682Z,4.80
2019-03-29T14:57:39.534Z,4.60
2019-03-29T15:00:48.416Z,4.63
2019-03-29T15:03:51.488Z,5.20
2019-03-29T15:06:56.370Z,5.10
2019-03-29T15:10:01.507Z,4.47
2019-03-29T15:13:06.470Z,5.90
2019-03-29T15:16:11.547Z,5.23
2019-03-29T15:19:16.487Z,4.87
2019-03-29T15:22:21.458Z,5.57
2019-03-29T15:25:26.295Z,10.57
2019-03-29T15:28:31.130Z,7.40
2019-03-29T15:31:35.943Z,6.23
2019-03-29T15:34:40.737Z,5.40
2019-03-29T15:37:45.680Z,4.90
2019-03-29T15:40:50.520Z,6.23
2019-03-29T15:43:55.357Z,5.37
2019-03-29T15:47:00.212Z,5.10
2019-03-29T15:50:05.460Z,4.83
2019-03-29T15:53:10.327Z,4.87
2019-03-29T15:56:15.188Z,4.90
2019-03-29T15:59:20.158Z,5.37
2019-03-29T16:02:25.098Z,5.73
2019-03-29T16:05:30.021Z,5.90
2019-03-29T16:08:34.959Z,5.63
2019-03-29T16:11:39.860Z,4.77
2019-03-29T16:14:44.863Z,4.97
2019-03-29T16:17:49.786Z,4.77
2019-03-29T16:20:54.627Z,4.63
2019-03-29T16:23:59.565Z,4.20
2019-03-29T16:27:04.438Z,4.93
2019-03-29T16:30:09.483Z,4.07
2019-03-29T16:33:14.424Z,4.40
2019-03-29T16:36:19.338Z,5.03
2019-03-29T16:39:24.120Z,4.90
2019-03-29T16:42:28.977Z,4.50
2019-03-29T16:45:46.907Z,4.40
2019-03-29T16:48:40.362Z,4.43
2019-03-29T16:51:45.163Z,4.40
2019-03-29T16:54:49.928Z,5.00
2019-03-29T16:57:54.731Z,5.00
2019-03-29T17:00:59.575Z,4.57
2019-03-29T17:04:04.430Z,5.17
2019-03-29T17:07:09.228Z,6.20
2019-03-29T17:10:14.473Z,7.53
2019-03-29T17:13:19.246Z,5.10
2019-03-29T17:16:30.380Z,4.17
2019-03-29T17:19:30.894Z,4.67
2019-03-29T17:22:36.101Z,5.50
2019-03-29T17:25:40.970Z,4.53
2019-03-29T17:28:45.744Z,4.20
2019-03-29T17:31:50.640Z,4.87
2019-03-29T17:34:55.961Z,4.17
2019-03-29T17:38:00.835Z,5.50
2019-03-29T17:41:05.712Z,6.83
2019-03-29T17:44:11.038Z,5.70
2019-03-29T17:47:17.510Z,5.23
2019-03-29T17:50:25.210Z,5.13
2019-03-29T17:53:29.238Z,5.00
2019-03-29T17:56:34.030Z,4.90
2019-03-29T17:59:38.831Z,4.70
2019-03-29T18:02:43.698Z,4.57
2019-03-29T18:05:48.954Z,5.50
2019-03-29T18:08:54.311Z,5.13
2019-03-29T18:11:59.109Z,4.90
2019-03-29T18:15:04.418Z,4.57
2019-03-29T18:18:09.355Z,4.60
2019-03-29T18:21:14.216Z,4.97
2019-03-29T18:24:19.000Z,5.70
2019-03-29T18:27:24.854Z,5.33
2019-03-29T18:30:41.408Z,5.33
2019-03-29T18:33:46.754Z,5.73
2019-03-29T18:36:52.385Z,4.90
2019-03-29T18:39:59.673Z,4.63
2019-03-29T18:43:04.671Z,5.10
2019-03-29T18:46:09.906Z,5.87
2019-03-29T18:49:14.891Z,4.70
2019-03-29T18:52:19.790Z,5.30
2019-03-29T18:55:25.647Z,5.63
2019-03-29T18:58:30.547Z,6.67
2019-03-29T19:01:35.487Z,8.10
2019-03-29T19:04:41.311Z,7.70
2019-03-29T19:07:47.538Z,8.67
2019-03-29T19:10:52.419Z,7.83
2019-03-29T19:13:58.355Z,8.10
2019-03-29T19:17:03.240Z,8.33
2019-03-29T19:20:10.299Z,8.00
2019-03-29T19:23:16.222Z,9.37
2019-03-29T19:26:21.157Z,7.87
2019-03-29T19:29:25.965Z,10.87
2019-03-29T19:32:31.341Z,8.83
2019-03-29T19:35:37.316Z,8.30
2019-03-29T19:38:42.649Z,9.40
2019-03-29T19:41:49.282Z,6.73
2019-03-29T19:44:54.223Z,7.90
2019-03-29T19:47:59.189Z,6.57
2019-03-29T19:51:04.477Z,6.73
2019-03-29T19:54:09.405Z,6.57
2019-03-29T19:57:14.302Z,7.23
2019-03-29T20:00:19.502Z,6.53
2019-03-29T20:03:24.407Z,7.30
2019-03-29T20:06:29.698Z,6.30
2019-03-29T20:09:36.444Z,5.70
2019-03-29T20:12:41.779Z,6.13
2019-03-29T20:15:47.763Z,6.30
2019-03-29T20:18:52.572Z,5.70
2019-03-29T20:21:58.408Z,6.30
2019-03-29T20:25:03.615Z,6.23
2019-03-29T20:28:09.169Z,6.50
2019-03-29T20:31:14.347Z,6.63
2019-03-29T20:34:20.006Z,5.97
2019-03-29T20:37:24.951Z,5.93
2019-03-29T20:40:32.076Z,7.07
2019-03-29T20:43:37.059Z,6.00
2019-03-29T20:46:42.699Z,5.80
2019-03-29T20:49:49.093Z,5.37
2019-03-29T20:52:55.935Z,5.40
2019-03-29T20:56:01.541Z,6.03
2019-03-29T20:59:06.485Z,6.53
2019-03-29T21:02:11.416Z,6.40
2019-03-29T21:05:17.680Z,5.47
2019-03-29T21:08:24.182Z,5.50
2019-03-29T21:11:30.344Z,5.03
2019-03-29T21:14:35.162Z,5.87
2019-03-29T21:17:40.113Z,5.70
2019-03-29T21:20:44.967Z,5.47
2019-03-29T21:23:51.028Z,5.30
2019-03-29T21:26:55.906Z,5.07
2019-03-29T21:30:01.872Z,5.67
2019-03-29T21:33:07.187Z,5.97
2019-03-29T21:36:12.123Z,5.60
2019-03-29T21:39:16.922Z,7.77
2019-03-29T21:42:22.095Z,7.90
2019-03-29T21:45:28.997Z,8.80
2019-03-29T21:48:33.418Z,7.50
2019-03-29T21:51:39.362Z,8.70
2019-03-29T21:54:44.241Z,8.50
2019-03-29T21:57:49.019Z,8.30
2019-03-29T22:00:53.908Z,8.17
2019-03-29T22:03:58.827Z,7.30
2019-03-29T22:07:04.154Z,7.70
2019-03-29T22:10:09.900Z,7.27
2019-03-29T22:13:14.738Z,7.27
2019-03-29T22:16:19.607Z,7.23
2019-03-29T22:19:24.454Z,7.13
2019-03-29T22:22:29.357Z,7.80
2019-03-29T22:25:34.745Z,6.60
2019-03-29T22:28:40.059Z,7.10
2019-03-29T22:31:45.177Z,7.63
2019-03-29T22:34:51.060Z,7.63
2019-03-29T22:37:56.895Z,6.97
2019-03-29T22:41:02.155Z,7.47
2019-03-29T22:44:07.028Z,7.30
2019-03-29T22:47:11.901Z,6.50
2019-03-29T22:50:16.859Z,8.00
2019-03-29T22:53:23.114Z,6.53
2019-03-29T22:56:28.052Z,7.63
2019-03-29T22:59:33.394Z,8.47
2019-03-29T23:02:39.404Z,7.70
2019-03-29T23:05:45.342Z,7.00
2019-03-29T23:08:50.130Z,7.30
2019-03-29T23:11:54.919Z,7.17
2019-03-29T23:14:59.664Z,6.90
2019-03-29T23:18:04.577Z,6.90
2019-03-29T23:21:09.435Z,7.00
2019-03-29T23:24:14.221Z,7.23
2019-03-29T23:27:19.091Z,7.73
2019-03-29T23:30:24.025Z,7.73
2019-03-29T23:33:28.868Z,7.60
2019-03-29T23:36:35.297Z,7.03
2019-03-29T23:39:40.147Z,6.87
2019-03-29T23:42:45.034Z,6.93
2019-03-29T23:45:50.817Z,6.53
2019-03-29T23:48:55.673Z,6.53
2019-03-29T23:52:00.452Z,6.90
2019-03-29T23:55:05.521Z,6.47
2019-03-29T23:58:10.769Z,7.20
